sensor_id;sensor_type;location;lat;lon;timestamp;pressure;altitude;pressure_sealevel;temperature;humidity
44441;BME280;30146;52.268;20.944;2022-11-02T00:02:24;100536.14;;;11.45;79.06
44441;BME280;30146;52.268;20.944;2022-11-02T00:04:58;100537.67;;;11.45;79.07
44441;BME280;30146;52.268;20.944;2022-11-02T00:07:29;100539.54;;;11.46;79.04
44441;BME280;30146;52.268;20.944;2022-11-02T00:10:00;100541.25;;;11.46;79.20
44441;BME280;30146;52.268;20.944;2022-11-02T00:12:33;100539.54;;;11.46;79.23
44441;BME280;30146;52.268;20.944;2022-11-02T00:15:07;100532.16;;;11.47;79.13
44441;BME280;30146;52.268;20.944;2022-11-02T00:17:39;100533.88;;;11.47;79.20
44441;BME280;30146;52.268;20.944;2022-11-02T00:20:13;100537.27;;;11.48;79.20
44441;BME280;30146;52.268;20.944;2022-11-02T00:22:46;100540.20;;;11.48;79.07
44441;BME280;30146;52.268;20.944;2022-11-02T00:25:19;100546.52;;;11.48;79.14
44441;BME280;30146;52.268;20.944;2022-11-02T00:27:51;100543.11;;;11.48;79.21
44441;BME280;30146;52.268;20.944;2022-11-02T00:30:22;100541.39;;;11.49;79.13
44441;BME280;30146;52.268;20.944;2022-11-02T00:32:53;100539.68;;;11.49;79.14
44441;BME280;30146;52.268;20.944;2022-11-02T00:35:25;100539.33;;;11.49;79.11
44441;BME280;30146;52.268;20.944;2022-11-02T00:37:57;100538.99;;;11.50;79.12
44441;BME280;30146;52.268;20.944;2022-11-02T00:40:28;100544.12;;;11.50;79.27
44441;BME280;30146;52.268;20.944;2022-11-02T00:42:59;100544.97;;;11.51;79.38
44441;BME280;30146;52.268;20.944;2022-11-02T00:45:30;100544.10;;;11.52;79.45
44441;BME280;30146;52.268;20.944;2022-11-02T00:48:01;100544.77;;;11.53;79.32
44441;BME280;30146;52.268;20.944;2022-11-02T00:50:33;100546.31;;;11.54;79.18
44441;BME280;30146;52.268;20.944;2022-11-02T00:53:05;100546.98;;;11.54;79.30
44441;BME280;30146;52.268;20.944;2022-11-02T00:55:36;100542.02;;;11.55;79.32
44441;BME280;30146;52.268;20.944;2022-11-02T00:58:08;100538.23;;;11.55;79.14
44441;BME280;30146;52.268;20.944;2022-11-02T01:00:39;100536.70;;;11.55;79.15
44441;BME280;30146;52.268;20.944;2022-11-02T01:03:11;100536.19;;;11.56;79.30
44441;BME280;30146;52.268;20.944;2022-11-02T01:05:42;100534.48;;;11.56;79.24
44441;BME280;30146;52.268;20.944;2022-11-02T01:08:13;100536.70;;;11.56;79.23
44441;BME280;30146;52.268;20.944;2022-11-02T01:10:44;100531.55;;;11.57;79.34
44441;BME280;30146;52.268;20.944;2022-11-02T01:13:18;100530.86;;;11.58;79.26
44441;BME280;30146;52.268;20.944;2022-11-02T01:15:48;100528.80;;;11.59;79.26
44441;BME280;30146;52.268;20.944;2022-11-02T01:18:19;100527.42;;;11.60;79.29
44441;BME280;30146;52.268;20.944;2022-11-02T01:20:57;100533.05;;;11.61;79.32
44441;BME280;30146;52.268;20.944;2022-11-02T01:23:31;100527.05;;;11.61;79.37
44441;BME280;30146;52.268;20.944;2022-11-02T01:26:05;100527.05;;;11.61;79.22
44441;BME280;30146;52.268;20.944;2022-11-02T01:28:37;100526.88;;;11.62;79.26
44441;BME280;30146;52.268;20.944;2022-11-02T01:31:09;100523.78;;;11.63;79.38
44441;BME280;30146;52.268;20.944;2022-11-02T01:33:43;100525.16;;;11.63;79.27
44441;BME280;30146;52.268;20.944;2022-11-02T01:36:16;100529.44;;;11.63;79.22
44441;BME280;30146;52.268;20.944;2022-11-02T01:38:54;100527.71;;;11.64;79.32
44441;BME280;30146;52.268;20.944;2022-11-02T01:41:25;100527.37;;;11.64;79.36
44441;BME280;30146;52.268;20.944;2022-11-02T01:43:57;100525.98;;;11.65;79.36
44441;BME280;30146;52.268;20.944;2022-11-02T01:46:35;100525.65;;;11.64;79.28
44441;BME280;30146;52.268;20.944;2022-11-02T01:49:09;100522.40;;;11.64;79.33
44441;BME280;30146;52.268;20.944;2022-11-02T01:51:44;100519.67;;;11.63;79.26
44441;BME280;30146;52.268;20.944;2022-11-02T01:54:19;100520.89;;;11.62;79.39
44441;BME280;30146;52.268;20.944;2022-11-02T01:56:55;100526.37;;;11.62;79.45
44441;BME280;30146;52.268;20.944;2022-11-02T01:59:31;100525.33;;;11.62;79.32
44441;BME280;30146;52.268;20.944;2022-11-02T02:02:06;100527.91;;;11.61;79.32
44441;BME280;30146;52.268;20.944;2022-11-02T02:04:40;100526.20;;;11.61;79.39
44441;BME280;30146;52.268;20.944;2022-11-02T02:07:12;100529.61;;;11.61;79.51
44441;BME280;30146;52.268;20.944;2022-11-02T02:09:44;100525.84;;;11.62;79.54
44441;BME280;30146;52.268;20.944;2022-11-02T02:12:20;100528.59;;;11.61;79.55
44441;BME280;30146;52.268;20.944;2022-11-02T02:14:52;100529.30;;;11.60;79.50
44441;BME280;30146;52.268;20.944;2022-11-02T02:17:34;100529.45;;;11.61;79.44
44441;BME280;30146;52.268;20.944;2022-11-02T02:20:10;100531.34;;;11.61;79.54
44441;BME280;30146;52.268;20.944;2022-11-02T02:23:07;100528.41;;;11.61;79.53
44441;BME280;30146;52.268;20.944;2022-11-02T02:25:56;100528.59;;;11.62;79.52
44441;BME280;30146;52.268;20.944;2022-11-02T02:28:36;100525.67;;;11.62;79.55
44441;BME280;30146;52.268;20.944;2022-11-02T02:31:15;100527.73;;;11.63;79.62
44441;BME280;30146;52.268;20.944;2022-11-02T02:33:50;100528.06;;;11.63;79.72
44441;BME280;30146;52.268;20.944;2022-11-02T02:36:28;100526.85;;;11.64;79.68
44441;BME280;30146;52.268;20.944;2022-11-02T02:39:06;100528.38;;;11.66;79.81
44441;BME280;30146;52.268;20.944;2022-11-02T02:41:43;100533.67;;;11.67;79.93
44441;BME280;30146;52.268;20.944;2022-11-02T02:44:20;100536.90;;;11.69;79.87
44441;BME280;30146;52.268;20.944;2022-11-02T02:46:56;100534.84;;;11.70;79.89
44441;BME280;30146;52.268;20.944;2022-11-02T02:49:35;100537.73;;;11.71;79.94
44441;BME280;30146;52.268;20.944;2022-11-02T02:52:08;100535.17;;;11.71;79.98
44441;BME280;30146;52.268;20.944;2022-11-02T02:54:44;100543.02;;;11.73;80.06
44441;BME280;30146;52.268;20.944;2022-11-02T02:57:20;100545.39;;;11.74;79.98
44441;BME280;30146;52.268;20.944;2022-11-02T02:59:53;100540.59;;;11.75;80.09
44441;BME280;30146;52.268;20.944;2022-11-02T03:02:26;100543.85;;;11.76;80.15
44441;BME280;30146;52.268;20.944;2022-11-02T03:04:58;100539.05;;;11.76;79.99
44441;BME280;30146;52.268;20.944;2022-11-02T03:07:32;100539.04;;;11.77;80.13
44441;BME280;30146;52.268;20.944;2022-11-02T03:10:15;100540.58;;;11.78;80.12
44441;BME280;30146;52.268;20.944;2022-11-02T03:12:52;100543.64;;;11.79;80.24
44441;BME280;30146;52.268;20.944;2022-11-02T03:15:35;100543.64;;;11.79;80.15
44441;BME280;30146;52.268;20.944;2022-11-02T03:18:15;100543.96;;;11.81;80.13
44441;BME280;30146;52.268;20.944;2022-11-02T03:21:00;100537.96;;;11.81;80.12
44441;BME280;30146;52.268;20.944;2022-11-02T03:23:38;100537.95;;;11.82;80.31
44441;BME280;30146;52.268;20.944;2022-11-02T03:26:16;100542.58;;;11.83;80.23
44441;BME280;30146;52.268;20.944;2022-11-02T03:28:57;100540.14;;;11.85;80.33
44441;BME280;30146;52.268;20.944;2022-11-02T03:31:35;100536.54;;;11.86;80.38
44441;BME280;30146;52.268;20.944;2022-11-02T03:34:17;100544.23;;;11.87;80.40
44441;BME280;30146;52.268;20.944;2022-11-02T03:36:55;100544.23;;;11.88;80.29
44441;BME280;30146;52.268;20.944;2022-11-02T03:39:33;100543.38;;;11.89;80.44
44441;BME280;30146;52.268;20.944;2022-11-02T03:42:08;100546.11;;;11.91;80.44
44441;BME280;30146;52.268;20.944;2022-11-02T03:44:41;100551.91;;;11.92;80.51
44441;BME280;30146;52.268;20.944;2022-11-02T03:47:17;100552.23;;;11.95;80.45
44441;BME280;30146;52.268;20.944;2022-11-02T03:49:50;100557.38;;;11.96;80.51
44441;BME280;30146;52.268;20.944;2022-11-02T03:52:25;100558.21;;;11.96;80.43
44441;BME280;30146;52.268;20.944;2022-11-02T03:55:03;100553.93;;;11.97;80.47
44441;BME280;30146;52.268;20.944;2022-11-02T03:57:39;100552.54;;;11.98;80.46
44441;BME280;30146;52.268;20.944;2022-11-02T04:00:14;100558.50;;;12.00;80.52
44441;BME280;30146;52.268;20.944;2022-11-02T04:02:50;100561.58;;;12.00;80.50
44441;BME280;30146;52.268;20.944;2022-11-02T04:05:27;100562.26;;;12.01;80.50
44441;BME280;30146;52.268;20.944;2022-11-02T04:08:00;100563.80;;;12.02;80.60
44441;BME280;30146;52.268;20.944;2022-11-02T04:10:52;100565.48;;;12.04;80.63
44441;BME280;30146;52.268;20.944;2022-11-02T04:13:41;100563.76;;;12.05;80.62
44441;BME280;30146;52.268;20.944;2022-11-02T04:16:31;100565.98;;;12.05;80.54
44441;BME280;30146;52.268;20.944;2022-11-02T04:19:03;100569.23;;;12.05;80.62
44441;BME280;30146;52.268;20.944;2022-11-02T04:21:52;100569.56;;;12.07;80.67
44441;BME280;30146;52.268;20.944;2022-11-02T04:24:42;100568.52;;;12.07;80.74
44441;BME280;30146;52.268;20.944;2022-11-02T04:27:32;100566.82;;;12.07;80.76
44441;BME280;30146;52.268;20.944;2022-11-02T04:30:05;100566.12;;;12.08;80.72
44441;BME280;30146;52.268;20.944;2022-11-02T04:32:39;100563.37;;;12.08;80.82
44441;BME280;30146;52.268;20.944;2022-11-02T04:35:30;100568.33;;;12.09;80.92
44441;BME280;30146;52.268;20.944;2022-11-02T04:38:02;100567.13;;;12.09;80.93
44441;BME280;30146;52.268;20.944;2022-11-02T04:40:51;100567.45;;;12.11;80.99
44441;BME280;30146;52.268;20.944;2022-11-02T04:43:42;100570.71;;;12.12;81.08
44441;BME280;30146;52.268;20.944;2022-11-02T04:46:16;100569.15;;;12.12;81.07
44441;BME280;30146;52.268;20.944;2022-11-02T04:48:47;100570.83;;;12.14;81.16
44441;BME280;30146;52.268;20.944;2022-11-02T04:51:20;100567.40;;;12.15;81.16
44441;BME280;30146;52.268;20.944;2022-11-02T04:53:52;100566.70;;;12.16;81.28
44441;BME280;30146;52.268;20.944;2022-11-02T04:56:26;100565.16;;;12.18;81.25
44441;BME280;30146;52.268;20.944;2022-11-02T04:58:58;100567.52;;;12.20;81.39
44441;BME280;30146;52.268;20.944;2022-11-02T05:01:31;100566.65;;;12.21;81.38
44441;BME280;30146;52.268;20.944;2022-11-02T05:04:02;100565.58;;;12.24;81.41
44441;BME280;30146;52.268;20.944;2022-11-02T05:06:34;100569.34;;;12.25;81.42
44441;BME280;30146;52.268;20.944;2022-11-02T05:09:07;100575.83;;;12.27;81.43
44441;BME280;30146;52.268;20.944;2022-11-02T05:11:38;100574.78;;;12.28;81.51
44441;BME280;30146;52.268;20.944;2022-11-02T05:14:09;100572.23;;;12.28;81.45
44441;BME280;30146;52.268;20.944;2022-11-02T05:16:40;100576.13;;;12.29;81.51
44441;BME280;30146;52.268;20.944;2022-11-02T05:19:12;100585.56;;;12.30;81.45
44441;BME280;30146;52.268;20.944;2022-11-02T05:21:44;100587.77;;;12.31;81.54
44441;BME280;30146;52.268;20.944;2022-11-02T05:24:15;100585.88;;;12.32;81.63
44441;BME280;30146;52.268;20.944;2022-11-02T05:26:49;100593.41;;;12.33;81.65
44441;BME280;30146;52.268;20.944;2022-11-02T05:29:24;100594.76;;;12.35;81.76
44441;BME280;30146;52.268;20.944;2022-11-02T05:31:57;100597.83;;;12.35;81.70
44441;BME280;30146;52.268;20.944;2022-11-02T05:34:28;100594.56;;;12.36;81.77
44441;BME280;30146;52.268;20.944;2022-11-02T05:37:00;100594.38;;;12.37;81.78
44441;BME280;30146;52.268;20.944;2022-11-02T05:39:31;100599.16;;;12.39;81.87
44441;BME280;30146;52.268;20.944;2022-11-02T05:42:03;100598.98;;;12.40;81.81
44441;BME280;30146;52.268;20.944;2022-11-02T05:44:34;100603.44;;;12.40;81.88
44441;BME280;30146;52.268;20.944;2022-11-02T05:47:05;100599.64;;;12.41;81.88
44441;BME280;30146;52.268;20.944;2022-11-02T05:49:36;100607.70;;;12.42;81.84
44441;BME280;30146;52.268;20.944;2022-11-02T05:52:07;100612.81;;;12.44;81.94
44441;BME280;30146;52.268;20.944;2022-11-02T05:54:39;100614.67;;;12.45;81.93
44441;BME280;30146;52.268;20.944;2022-11-02T05:57:10;100618.79;;;12.46;81.87
44441;BME280;30146;52.268;20.944;2022-11-02T05:59:41;100621.52;;;12.46;81.85
44441;BME280;30146;52.268;20.944;2022-11-02T06:02:18;100625.95;;;12.48;81.90
44441;BME280;30146;52.268;20.944;2022-11-02T06:04:54;100622.52;;;12.49;82.03
44441;BME280;30146;52.268;20.944;2022-11-02T06:07:25;100623.02;;;12.50;82.09
44441;BME280;30146;52.268;20.944;2022-11-02T06:09:55;100623.34;;;12.52;82.12
44441;BME280;30146;52.268;20.944;2022-11-02T06:12:26;100622.62;;;12.55;82.17
44441;BME280;30146;52.268;20.944;2022-11-02T06:14:57;100625.66;;;12.57;82.27
44441;BME280;30146;52.268;20.944;2022-11-02T06:17:29;100625.98;;;12.59;82.35
44441;BME280;30146;52.268;20.944;2022-11-02T06:20:08;100631.43;;;12.62;82.21
44441;BME280;30146;52.268;20.944;2022-11-02T06:22:42;100635.52;;;12.64;82.29
44441;BME280;30146;52.268;20.944;2022-11-02T06:25:13;100641.83;;;12.67;82.29
44441;BME280;30146;52.268;20.944;2022-11-02T06:27:50;100643.84;;;12.70;82.28
44441;BME280;30146;52.268;20.944;2022-11-02T06:30:25;100643.13;;;12.73;82.17
44441;BME280;30146;52.268;20.944;2022-11-02T06:32:56;100648.74;;;12.76;82.19
44441;BME280;30146;52.268;20.944;2022-11-02T06:35:35;100654.52;;;12.80;82.11
44441;BME280;30146;52.268;20.944;2022-11-02T06:38:06;100653.63;;;12.82;82.10
44441;BME280;30146;52.268;20.944;2022-11-02T06:40:37;100656.52;;;12.85;82.14
44441;BME280;30146;52.268;20.944;2022-11-02T06:43:08;100652.86;;;12.88;82.04
44441;BME280;30146;52.268;20.944;2022-11-02T06:45:45;100653.35;;;12.91;82.08
44441;BME280;30146;52.268;20.944;2022-11-02T06:48:16;100656.21;;;12.94;82.03
44441;BME280;30146;52.268;20.944;2022-11-02T06:50:47;100654.29;;;12.97;81.99
44441;BME280;30146;52.268;20.944;2022-11-02T06:53:18;100652.71;;;12.99;81.87
44441;BME280;30146;52.268;20.944;2022-11-02T06:55:53;100655.26;;;13.00;81.93
44441;BME280;30146;52.268;20.944;2022-11-02T06:58:24;100657.10;;;13.04;82.03
44441;BME280;30146;52.268;20.944;2022-11-02T07:00:59;100655.83;;;13.09;82.20
44441;BME280;30146;52.268;20.944;2022-11-02T07:03:29;100654.92;;;13.12;81.89
44441;BME280;30146;52.268;20.944;2022-11-02T07:06:01;100658.84;;;13.15;81.84
44441;BME280;30146;52.268;20.944;2022-11-02T07:08:38;100663.25;;;13.18;81.79
44441;BME280;30146;52.268;20.944;2022-11-02T07:11:13;100659.60;;;13.21;81.78
44441;BME280;30146;52.268;20.944;2022-11-02T07:13:45;100660.94;;;13.23;81.74
44441;BME280;30146;52.268;20.944;2022-11-02T07:16:16;100658.83;;;13.26;81.62
44441;BME280;30146;52.268;20.944;2022-11-02T07:18:46;100660.17;;;13.28;81.55
44441;BME280;30146;52.268;20.944;2022-11-02T07:21:17;100661.34;;;13.33;81.63
44441;BME280;30146;52.268;20.944;2022-11-02T07:23:53;100662.80;;;13.38;81.62
44441;BME280;30146;52.268;20.944;2022-11-02T07:26:24;100664.76;;;13.44;81.51
44441;BME280;30146;52.268;20.944;2022-11-02T07:28:56;100668.59;;;13.82;82.81
44441;BME280;30146;52.268;20.944;2022-11-02T07:31:28;100666.19;;;14.62;84.44
44441;BME280;30146;52.268;20.944;2022-11-02T07:34:01;100659.52;;;15.66;85.56
44441;BME280;30146;52.268;20.944;2022-11-02T07:36:32;100659.83;;;16.81;86.04
44441;BME280;30146;52.268;20.944;2022-11-02T07:39:03;100658.77;;;17.89;85.45
44441;BME280;30146;52.268;20.944;2022-11-02T07:41:36;100655.23;;;19.04;84.45
44441;BME280;30146;52.268;20.944;2022-11-02T07:44:07;100655.25;;;20.16;82.92
44441;BME280;30146;52.268;20.944;2022-11-02T07:46:54;100651.47;;;21.32;80.96
44441;BME280;30146;52.268;20.944;2022-11-02T07:49:25;100654.92;;;22.28;79.02
44441;BME280;30146;52.268;20.944;2022-11-02T07:51:57;100654.88;;;23.09;76.60
44441;BME280;30146;52.268;20.944;2022-11-02T07:54:28;100653.45;;;23.76;74.21
44441;BME280;30146;52.268;20.944;2022-11-02T07:56:59;100653.11;;;24.20;71.67
44441;BME280;30146;52.268;20.944;2022-11-02T07:59:30;100652.70;;;24.12;68.89
44441;BME280;30146;52.268;20.944;2022-11-02T08:02:01;100656.41;;;24.20;67.62
44441;BME280;30146;52.268;20.944;2022-11-02T08:04:33;100659.45;;;24.48;67.02
44441;BME280;30146;52.268;20.944;2022-11-02T08:07:10;100661.77;;;24.69;66.17
44441;BME280;30146;52.268;20.944;2022-11-02T08:09:41;100659.05;;;24.90;65.83
44441;BME280;30146;52.268;20.944;2022-11-02T08:12:12;100663.10;;;24.76;64.57
44441;BME280;30146;52.268;20.944;2022-11-02T08:14:43;100663.65;;;24.67;64.01
44441;BME280;30146;52.268;20.944;2022-11-02T08:17:14;100659.52;;;24.49;63.31
44441;BME280;30146;52.268;20.944;2022-11-02T08:19:45;100659.23;;;24.06;62.08
44441;BME280;30146;52.268;20.944;2022-11-02T08:22:15;100659.60;;;23.58;61.38
44441;BME280;30146;52.268;20.944;2022-11-02T08:24:46;100660.58;;;23.07;61.23
44441;BME280;30146;52.268;20.944;2022-11-02T08:27:17;100662.64;;;22.57;61.19
44441;BME280;30146;52.268;20.944;2022-11-02T08:29:48;100661.66;;;22.06;61.12
44441;BME280;30146;52.268;20.944;2022-11-02T08:32:19;100658.46;;;21.56;61.29
44441;BME280;30146;52.268;20.944;2022-11-02T08:34:50;100660.11;;;21.11;61.50
44441;BME280;30146;52.268;20.944;2022-11-02T08:37:21;100659.15;;;20.69;61.73
44441;BME280;30146;52.268;20.944;2022-11-02T08:39:52;100659.80;;;20.32;62.19
44441;BME280;30146;52.268;20.944;2022-11-02T08:42:23;100658.77;;;20.00;62.58
44441;BME280;30146;52.268;20.944;2022-11-02T08:44:53;100653.61;;;19.70;62.74
44441;BME280;30146;52.268;20.944;2022-11-02T08:47:24;100656.98;;;19.43;63.01
44441;BME280;30146;52.268;20.944;2022-11-02T08:49:55;100658.61;;;19.16;63.22
44441;BME280;30146;52.268;20.944;2022-11-02T08:52:27;100657.70;;;18.91;63.52
44441;BME280;30146;52.268;20.944;2022-11-02T08:54:58;100660.97;;;18.67;64.05
44441;BME280;30146;52.268;20.944;2022-11-02T08:57:30;100666.02;;;18.48;64.29
44441;BME280;30146;52.268;20.944;2022-11-02T09:00:01;100664.30;;;18.29;64.49
44441;BME280;30146;52.268;20.944;2022-11-02T09:02:32;100670.34;;;18.15;64.80
44441;BME280;30146;52.268;20.944;2022-11-02T09:05:03;100668.80;;;18.00;64.86
44441;BME280;30146;52.268;20.944;2022-11-02T09:07:34;100668.05;;;17.86;65.14
44441;BME280;30146;52.268;20.944;2022-11-02T09:10:05;100668.36;;;17.71;65.24
44441;BME280;30146;52.268;20.944;2022-11-02T09:12:38;100663.20;;;17.55;65.35
44441;BME280;30146;52.268;20.944;2022-11-02T09:15:10;100663.79;;;17.37;65.33
44441;BME280;30146;52.268;20.944;2022-11-02T09:17:41;100661.52;;;17.22;65.77
44441;BME280;30146;52.268;20.944;2022-11-02T09:20:12;100659.31;;;17.09;66.06
44441;BME280;30146;52.268;20.944;2022-11-02T09:22:43;100660.15;;;16.99;66.37
44441;BME280;30146;52.268;20.944;2022-11-02T09:25:15;100659.75;;;16.90;66.42
44441;BME280;30146;52.268;20.944;2022-11-02T09:27:50;100655.02;;;16.81;66.67
44441;BME280;30146;52.268;20.944;2022-11-02T09:30:25;100660.41;;;16.72;66.87
44441;BME280;30146;52.268;20.944;2022-11-02T09:32:58;100658.88;;;16.66;66.95
44441;BME280;30146;52.268;20.944;2022-11-02T09:35:31;100659.91;;;16.60;67.11
44441;BME280;30146;52.268;20.944;2022-11-02T09:38:03;100661.27;;;16.54;67.21
44441;BME280;30146;52.268;20.944;2022-11-02T09:40:38;100662.66;;;16.48;67.34
44441;BME280;30146;52.268;20.944;2022-11-02T09:43:18;100665.39;;;16.44;67.55
44441;BME280;30146;52.268;20.944;2022-11-02T09:46:03;100672.95;;;16.39;67.49
44441;BME280;30146;52.268;20.944;2022-11-02T09:48:37;100669.00;;;16.32;67.53
44441;BME280;30146;52.268;20.944;2022-11-02T09:51:12;100667.73;;;16.29;67.73
44441;BME280;30146;52.268;20.944;2022-11-02T09:53:51;100666.26;;;16.25;67.80
44441;BME280;30146;52.268;20.944;2022-11-02T09:56:24;100668.02;;;16.24;68.06
44441;BME280;30146;52.268;20.944;2022-11-02T09:58:59;100670.77;;;16.24;68.27
44441;BME280;30146;52.268;20.944;2022-11-02T10:01:40;100669.77;;;16.23;68.32
44441;BME280;30146;52.268;20.944;2022-11-02T10:04:34;100666.53;;;16.22;68.45
44441;BME280;30146;52.268;20.944;2022-11-02T10:07:19;100666.90;;;16.21;68.51
44441;BME280;30146;52.268;20.944;2022-11-02T10:09:54;100667.85;;;16.18;68.28
44441;BME280;30146;52.268;20.944;2022-11-02T10:12:36;100673.88;;;16.11;68.21
44441;BME280;30146;52.268;20.944;2022-11-02T10:15:16;100668.89;;;16.05;68.31
44441;BME280;30146;52.268;20.944;2022-11-02T10:17:52;100670.42;;;15.99;68.44
44441;BME280;30146;52.268;20.944;2022-11-02T10:20:29;100673.13;;;15.94;68.51
44441;BME280;30146;52.268;20.944;2022-11-02T10:23:06;100674.11;;;15.89;68.55
44441;BME280;30146;52.268;20.944;2022-11-02T10:25:38;100670.80;;;15.84;68.61
44441;BME280;30146;52.268;20.944;2022-11-02T10:28:16;100674.05;;;15.79;68.70
44441;BME280;30146;52.268;20.944;2022-11-02T10:30:50;100674.66;;;15.74;68.86
44441;BME280;30146;52.268;20.944;2022-11-02T10:33:26;100666.33;;;15.70;68.96
44441;BME280;30146;52.268;20.944;2022-11-02T10:36:15;100669.31;;;15.67;69.13
44441;BME280;30146;52.268;20.944;2022-11-02T10:39:05;100664.52;;;15.66;69.25
44441;BME280;30146;52.268;20.944;2022-11-02T10:41:49;100668.27;;;15.67;69.49
44441;BME280;30146;52.268;20.944;2022-11-02T10:44:35;100668.38;;;15.70;69.65
44441;BME280;30146;52.268;20.944;2022-11-02T10:47:14;100667.96;;;15.73;69.73
44441;BME280;30146;52.268;20.944;2022-11-02T10:52:53;100670.33;;;15.75;69.78
44441;BME280;30146;52.268;20.944;2022-11-02T10:55:48;100674.98;;;15.76;69.65
44441;BME280;30146;52.268;20.944;2022-11-02T10:58:22;100674.66;;;15.75;69.65
44441;BME280;30146;52.268;20.944;2022-11-02T11:01:06;100672.05;;;15.76;69.69
44441;BME280;30146;52.268;20.944;2022-11-02T11:03:53;100673.27;;;15.76;69.77
44441;BME280;30146;52.268;20.944;2022-11-02T11:06:28;100672.58;;;15.76;69.72
44441;BME280;30146;52.268;20.944;2022-11-02T11:09:05;100673.27;;;15.76;69.70
44441;BME280;30146;52.268;20.944;2022-11-02T11:11:38;100673.05;;;15.78;69.78
44441;BME280;30146;52.268;20.944;2022-11-02T11:14:16;100671.09;;;15.80;70.01
44441;BME280;30146;52.268;20.944;2022-11-02T11:17:16;100669.15;;;15.82;69.79
44441;BME280;30146;52.268;20.944;2022-11-02T11:20:28;100669.17;;;15.87;70.01
44441;BME280;30146;52.268;20.944;2022-11-02T11:23:23;100671.77;;;15.93;70.15
44441;BME280;30146;52.268;20.944;2022-11-02T11:25:57;100669.73;;;15.99;70.09
44441;BME280;30146;52.268;20.944;2022-11-02T11:28:30;100673.36;;;16.04;70.01
44441;BME280;30146;52.268;20.944;2022-11-02T11:31:11;100665.47;;;16.10;70.01
44441;BME280;30146;52.268;20.944;2022-11-02T11:33:46;100662.70;;;16.16;69.76
44441;BME280;30146;52.268;20.944;2022-11-02T11:36:26;100659.50;;;16.20;69.66
44441;BME280;30146;52.268;20.944;2022-11-02T11:39:00;100658.87;;;16.24;69.42
44441;BME280;30146;52.268;20.944;2022-11-02T11:41:32;100654.79;;;16.28;69.39
44441;BME280;30146;52.268;20.944;2022-11-02T11:44:09;100649.95;;;16.35;69.30
44441;BME280;30146;52.268;20.944;2022-11-02T11:46:44;100656.17;;;16.40;68.95
44441;BME280;30146;52.268;20.944;2022-11-02T11:49:22;100654.13;;;16.45;68.82
44441;BME280;30146;52.268;20.944;2022-11-02T11:52:17;100652.98;;;16.50;68.58
44441;BME280;30146;52.268;20.944;2022-11-02T11:54:57;100652.69;;;16.53;68.43
44441;BME280;30146;52.268;20.944;2022-11-02T11:57:30;100656.30;;;16.53;68.13
44441;BME280;30146;52.268;20.944;2022-11-02T12:00:23;100657.09;;;16.50;67.99
44441;BME280;30146;52.268;20.944;2022-11-02T12:03:04;100660.77;;;16.43;67.68
44441;BME280;30146;52.268;20.944;2022-11-02T12:05:44;100657.52;;;16.35;67.61
44441;BME280;30146;52.268;20.944;2022-11-02T12:08:31;100654.37;;;16.31;67.51
44441;BME280;30146;52.268;20.944;2022-11-02T12:11:22;100648.45;;;16.32;67.82
44441;BME280;30146;52.268;20.944;2022-11-02T12:14:11;100644.61;;;16.34;67.83
44441;BME280;30146;52.268;20.944;2022-11-02T12:17:01;100642.67;;;16.35;67.74
44441;BME280;30146;52.268;20.944;2022-11-02T12:19:48;100644.35;;;16.37;67.93
44441;BME280;30146;52.268;20.944;2022-11-02T12:22:28;100644.73;;;16.37;67.72
44441;BME280;30146;52.268;20.944;2022-11-02T12:25:14;100644.14;;;16.32;67.48
44441;BME280;30146;52.268;20.944;2022-11-02T12:27:55;100640.36;;;16.26;67.58
44441;BME280;30146;52.268;20.944;2022-11-02T12:30:32;100639.52;;;16.25;67.60
44441;BME280;30146;52.268;20.944;2022-11-02T12:33:23;100636.71;;;16.26;67.62
44441;BME280;30146;52.268;20.944;2022-11-02T12:36:04;100631.70;;;16.27;67.63
44441;BME280;30146;52.268;20.944;2022-11-02T12:38:49;100630.85;;;16.27;67.67
44441;BME280;30146;52.268;20.944;2022-11-02T12:41:32;100627.29;;;16.25;67.56
44441;BME280;30146;52.268;20.944;2022-11-02T12:44:22;100628.16;;;16.24;67.66
44441;BME280;30146;52.268;20.944;2022-11-02T12:47:02;100624.69;;;16.25;67.76
44441;BME280;30146;52.268;20.944;2022-11-02T12:49:43;100623.61;;;16.27;67.83
44441;BME280;30146;52.268;20.944;2022-11-02T12:52:31;100622.22;;;16.27;67.68
44441;BME280;30146;52.268;20.944;2022-11-02T12:55:13;100617.71;;;16.28;67.71
44441;BME280;30146;52.268;20.944;2022-11-02T12:57:46;100619.05;;;16.29;67.72
44441;BME280;30146;52.268;20.944;2022-11-02T13:00:20;100618.15;;;16.30;67.70
44441;BME280;30146;52.268;20.944;2022-11-02T13:02:56;100618.52;;;16.30;67.72
44441;BME280;30146;52.268;20.944;2022-11-02T13:05:36;100615.70;;;16.31;67.82
44441;BME280;30146;52.268;20.944;2022-11-02T13:08:12;100612.74;;;16.33;67.81
44441;BME280;30146;52.268;20.944;2022-11-02T13:10:46;100612.08;;;16.32;67.72
44441;BME280;30146;52.268;20.944;2022-11-02T13:13:28;100613.88;;;16.29;67.54
44441;BME280;30146;52.268;20.944;2022-11-02T13:16:01;100612.73;;;16.27;67.50
44441;BME280;30146;52.268;20.944;2022-11-02T13:18:37;100613.91;;;16.22;67.36
44441;BME280;30146;52.268;20.944;2022-11-02T13:21:12;100612.17;;;16.16;67.34
44441;BME280;30146;52.268;20.944;2022-11-02T13:23:48;100612.13;;;16.12;67.34
44441;BME280;30146;52.268;20.944;2022-11-02T13:26:27;100614.82;;;16.08;67.59
44441;BME280;30146;52.268;20.944;2022-11-02T13:29:03;100611.69;;;16.03;67.45